createdAt,value
2023-03-06T00:00:59.417Z,2.01
2023-03-06T00:03:28.367Z,1.97
2023-03-06T00:05:59.565Z,1.93
2023-03-06T00:08:29.386Z,1.90
2023-03-06T00:10:58.001Z,1.85
2023-03-06T00:13:29.991Z,1.87
2023-03-06T00:16:01.251Z,1.86
2023-03-06T00:18:29.563Z,1.84
2023-03-06T00:20:57.931Z,1.84
2023-03-06T00:23:27.616Z,1.81
2023-03-06T00:25:56.146Z,1.79
2023-03-06T00:28:24.042Z,1.76
2023-03-06T00:30:52.054Z,1.73
2023-03-06T00:33:20.349Z,1.72
2023-03-06T00:35:48.326Z,1.70
2023-03-06T00:38:16.353Z,1.71
2023-03-06T00:40:44.331Z,1.72
2023-03-06T00:43:13.318Z,1.70
2023-03-06T00:45:43.062Z,1.69
2023-03-06T00:48:10.968Z,1.69
2023-03-06T00:50:39.463Z,1.68
2023-03-06T00:53:07.759Z,1.66
2023-03-06T00:55:35.963Z,1.64
2023-03-06T00:58:03.886Z,1.64
2023-03-06T01:00:32.335Z,1.64
2023-03-06T01:03:00.576Z,1.63
2023-03-06T01:05:28.396Z,1.62
2023-03-06T01:07:56.759Z,1.64
2023-03-06T01:10:24.676Z,1.65
2023-03-06T01:12:53.964Z,1.64
2023-03-06T01:15:22.873Z,1.61
2023-03-06T01:17:54.562Z,1.61
2023-03-06T01:20:23.189Z,1.61
2023-03-06T01:22:51.270Z,1.59
2023-03-06T01:25:19.378Z,1.58
2023-03-06T01:27:47.424Z,1.56
2023-03-06T01:30:15.265Z,1.54
2023-03-06T01:32:43.701Z,1.52
2023-03-06T01:35:13.122Z,1.49
2023-03-06T01:37:41.582Z,1.48
2023-03-06T01:40:12.819Z,1.47
2023-03-06T01:42:42.642Z,1.46
2023-03-06T01:45:13.699Z,1.49
2023-03-06T01:47:41.692Z,1.51
2023-03-06T01:50:12.112Z,1.51
2023-03-06T01:52:47.030Z,1.51
2023-03-06T01:55:19.967Z,1.54
2023-03-06T01:57:55.033Z,1.56
2023-03-06T02:00:25.941Z,1.57
2023-03-06T02:03:00.101Z,1.57
2023-03-06T02:05:28.049Z,1.59
2023-03-06T02:07:57.681Z,1.60
2023-03-06T02:10:25.674Z,1.63
2023-03-06T02:12:54.221Z,1.61
2023-03-06T02:15:24.552Z,1.60
2023-03-06T02:17:54.989Z,1.61
2023-03-06T02:20:29.438Z,1.63
2023-03-06T02:23:10.365Z,1.65
2023-03-06T02:25:42.996Z,1.64
2023-03-06T02:28:15.276Z,1.64
2023-03-06T02:30:44.787Z,1.66
2023-03-06T02:33:16.478Z,1.66
2023-03-06T02:35:51.906Z,1.66
2023-03-06T02:38:23.841Z,1.65
2023-03-06T02:40:53.232Z,1.65
2023-03-06T02:43:25.752Z,1.64
2023-03-06T02:45:54.594Z,1.64
2023-03-06T02:48:22.849Z,1.64
2023-03-06T02:50:50.951Z,1.64
2023-03-06T02:53:20.926Z,1.65
2023-03-06T02:55:49.919Z,1.66
2023-03-06T02:58:19.809Z,1.68
2023-03-06T03:00:49.341Z,1.73
2023-03-06T03:03:18.354Z,1.74
2023-03-06T03:05:46.485Z,1.73
2023-03-06T03:08:20.700Z,1.75
2023-03-06T03:10:50.027Z,1.77
2023-03-06T03:13:19.620Z,1.75
2023-03-06T03:16:11.201Z,1.74
2023-03-06T03:18:39.037Z,1.77
2023-03-06T03:21:12.624Z,1.76
2023-03-06T03:23:41.221Z,1.74
2023-03-06T03:26:13.644Z,1.69
2023-03-06T03:28:44.747Z,1.67
2023-03-06T03:31:14.229Z,1.66
2023-03-06T03:33:42.305Z,1.66
2023-03-06T03:36:10.743Z,1.68
2023-03-06T03:38:42.054Z,1.71
2023-03-06T03:41:10.430Z,1.74
2023-03-06T03:43:38.575Z,1.77
2023-03-06T03:46:06.914Z,1.80
2023-03-06T03:48:34.991Z,1.84
2023-03-06T03:51:12.313Z,1.88
2023-03-06T03:53:44.727Z,1.93
2023-03-06T03:56:14.092Z,1.97
2023-03-06T03:58:53.169Z,1.99
2023-03-06T04:01:21.838Z,2.02
2023-03-06T04:03:50.414Z,2.07
2023-03-06T04:06:18.844Z,2.14
2023-03-06T04:08:47.296Z,2.19
2023-03-06T04:11:15.820Z,2.22
2023-03-06T04:13:44.457Z,2.25
2023-03-06T04:16:12.480Z,2.29
2023-03-06T04:18:40.854Z,2.30
2023-03-06T04:21:09.177Z,2.34
2023-03-06T04:23:37.660Z,2.39
2023-03-06T04:26:06.979Z,2.43
2023-03-06T04:28:35.861Z,2.45
2023-03-06T04:31:04.998Z,2.46
2023-03-06T04:33:33.170Z,2.50
2023-03-06T04:36:01.857Z,2.52
2023-03-06T04:38:31.569Z,2.55
2023-03-06T04:40:59.658Z,2.58
2023-03-06T04:43:27.739Z,2.60
2023-03-06T04:45:55.790Z,2.62
2023-03-06T04:48:23.837Z,2.64
2023-03-06T04:50:51.974Z,2.66
2023-03-06T04:53:21.341Z,2.67
2023-03-06T04:55:49.209Z,2.67
2023-03-06T04:58:17.258Z,2.68
2023-03-06T05:00:45.676Z,2.73
2023-03-06T05:03:14.450Z,2.75
2023-03-06T05:05:42.814Z,2.76
2023-03-06T05:08:15.418Z,2.78
2023-03-06T05:10:45.219Z,2.81
2023-03-06T05:13:13.180Z,2.84
2023-03-06T05:15:42.303Z,2.86
2023-03-06T05:18:10.276Z,2.89
2023-03-06T05:20:38.216Z,2.88
2023-03-06T05:23:06.535Z,2.91
2023-03-06T05:25:34.566Z,2.93
2023-03-06T05:28:02.581Z,2.94
2023-03-06T05:30:30.802Z,2.94
2023-03-06T05:32:59.604Z,3.00
2023-03-06T05:35:28.483Z,3.88
2023-03-06T05:37:57.175Z,3.98
2023-03-06T05:40:25.391Z,3.81
2023-03-06T05:42:53.803Z,3.64
2023-03-06T05:45:21.757Z,3.50
2023-03-06T05:47:49.912Z,3.37
2023-03-06T05:50:17.898Z,3.31
2023-03-06T05:52:46.389Z,3.24
2023-03-06T05:55:15.533Z,3.15
2023-03-06T05:57:43.729Z,3.06
2023-03-06T06:00:13.356Z,2.98
2023-03-06T06:02:43.771Z,2.96
2023-03-06T06:05:13.322Z,2.96
2023-03-06T06:07:41.557Z,2.95
2023-03-06T06:10:11.446Z,2.96
2023-03-06T06:12:39.579Z,2.94
2023-03-06T06:15:08.192Z,2.93
2023-03-06T06:17:36.068Z,2.95
2023-03-06T06:20:04.408Z,2.99
2023-03-06T06:22:36.771Z,3.04
2023-03-06T06:25:06.526Z,3.06
2023-03-06T06:27:34.794Z,3.13
2023-03-06T06:30:05.303Z,3.17
2023-03-06T06:32:34.478Z,3.19
2023-03-06T06:35:04.089Z,3.22
2023-03-06T06:37:32.377Z,3.27
2023-03-06T06:40:00.233Z,3.34
2023-03-06T06:42:34.608Z,3.40
2023-03-06T06:45:06.731Z,3.42
2023-03-06T06:47:35.060Z,3.43
2023-03-06T06:50:03.232Z,3.44
2023-03-06T06:52:31.517Z,3.47
2023-03-06T06:54:59.530Z,3.52
2023-03-06T06:57:27.828Z,3.59
2023-03-06T06:59:55.769Z,3.65
2023-03-06T07:02:23.892Z,3.73
2023-03-06T07:05:03.454Z,3.82
2023-03-06T07:07:37.633Z,3.90
2023-03-06T07:10:11.314Z,3.96
2023-03-06T07:12:39.811Z,4.02
2023-03-06T07:15:09.186Z,4.08
2023-03-06T07:17:37.570Z,4.12
2023-03-06T07:20:07.297Z,4.16
2023-03-06T07:22:49.903Z,4.21
2023-03-06T07:25:19.872Z,4.26
2023-03-06T07:27:53.432Z,4.33
2023-03-06T07:30:24.562Z,4.39
2023-03-06T07:32:57.658Z,4.45
2023-03-06T07:35:26.628Z,4.50
2023-03-06T07:37:55.088Z,4.55
2023-03-06T07:40:24.202Z,4.58
2023-03-06T07:43:06.235Z,4.59
2023-03-06T07:45:42.026Z,4.61
2023-03-06T07:48:10.212Z,4.64
2023-03-06T07:50:39.068Z,4.67
2023-03-06T07:53:07.268Z,4.67
2023-03-06T07:55:35.527Z,4.69
2023-03-06T07:58:03.466Z,4.74
2023-03-06T08:00:31.527Z,4.80
2023-03-06T08:03:00.047Z,4.86
2023-03-06T08:05:28.060Z,4.90
2023-03-06T08:07:56.151Z,4.97
2023-03-06T08:10:24.518Z,5.03
2023-03-06T08:12:52.726Z,5.04
2023-03-06T08:15:20.997Z,5.03
2023-03-06T08:17:51.160Z,5.07
2023-03-06T08:20:19.269Z,5.14
2023-03-06T08:22:49.056Z,5.24
2023-03-06T08:25:17.052Z,5.29
2023-03-06T08:27:46.758Z,5.30
2023-03-06T08:30:14.921Z,5.29
2023-03-06T08:32:42.978Z,5.31
2023-03-06T08:35:11.271Z,5.34
2023-03-06T08:37:39.313Z,5.34
2023-03-06T08:40:08.742Z,5.31
2023-03-06T08:42:36.607Z,5.30
2023-03-06T08:45:06.026Z,5.30
2023-03-06T08:47:35.288Z,5.30
2023-03-06T08:50:03.902Z,5.31
2023-03-06T08:52:31.944Z,5.32
2023-03-06T08:55:03.571Z,5.34
2023-03-06T08:57:31.943Z,5.41
2023-03-06T08:59:59.921Z,5.43
2023-03-06T09:02:28.342Z,5.41
2023-03-06T09:04:56.538Z,5.43
2023-03-06T09:07:24.488Z,5.45
2023-03-06T09:09:56.381Z,5.44
2023-03-06T09:12:25.590Z,5.47
2023-03-06T09:14:53.818Z,5.54
2023-03-06T09:17:22.024Z,5.59
2023-03-06T09:19:51.034Z,5.63
2023-03-06T09:22:19.174Z,5.71
2023-03-06T09:24:47.128Z,5.80
2023-03-06T09:27:15.094Z,5.88
2023-03-06T09:29:42.966Z,5.96
2023-03-06T09:32:12.166Z,6.06
2023-03-06T09:34:40.288Z,6.15
2023-03-06T09:37:08.206Z,6.23
2023-03-06T09:39:36.702Z,6.29
2023-03-06T09:42:09.206Z,6.38
2023-03-06T09:44:41.101Z,6.49
2023-03-06T09:47:41.118Z,6.57
2023-03-06T09:50:32.624Z,6.60
2023-03-06T09:53:15.278Z,6.58
2023-03-06T09:55:48.530Z,6.56
2023-03-06T09:58:22.521Z,6.52
2023-03-06T10:01:12.509Z,6.50
2023-03-06T10:03:56.949Z,6.47
2023-03-06T10:06:31.027Z,6.48
2023-03-06T10:09:23.382Z,6.50
2023-03-06T10:11:58.835Z,6.60
2023-03-06T10:14:47.732Z,6.73
2023-03-06T10:17:20.675Z,6.87
2023-03-06T10:19:49.666Z,6.98
2023-03-06T10:22:30.429Z,7.08
2023-03-06T10:25:20.035Z,7.15
2023-03-06T10:27:57.899Z,7.25
2023-03-06T10:30:49.487Z,7.36
2023-03-06T10:33:38.664Z,7.44
2023-03-06T10:36:06.724Z,7.53
2023-03-06T10:38:39.208Z,7.62
2023-03-06T10:41:13.060Z,7.69
2023-03-06T10:43:46.112Z,7.77
2023-03-06T10:46:29.645Z,7.85
2023-03-06T10:49:00.051Z,7.89
2023-03-06T10:51:29.718Z,7.88
2023-03-06T10:54:13.051Z,7.91
2023-03-06T10:56:43.712Z,7.92
2023-03-06T10:59:17.176Z,7.98
2023-03-06T11:01:51.476Z,8.06
2023-03-06T11:04:46.119Z,8.13
2023-03-06T11:07:19.816Z,8.23
2023-03-06T11:09:56.833Z,8.25
2023-03-06T11:12:35.291Z,8.23
2023-03-06T11:15:17.437Z,8.20
2023-03-06T11:18:00.223Z,8.18
2023-03-06T11:20:51.862Z,8.24
2023-03-06T11:23:44.015Z,8.34
2023-03-06T11:26:18.231Z,8.44
2023-03-06T11:29:02.686Z,8.54
2023-03-06T11:31:38.124Z,8.63
2023-03-06T11:34:12.358Z,8.71
2023-03-06T11:36:48.214Z,8.76
2023-03-06T11:39:23.766Z,8.75
2023-03-06T11:42:04.174Z,8.74
2023-03-06T11:44:47.805Z,8.73
2023-03-06T11:47:39.189Z,8.72
2023-03-06T11:50:25.791Z,8.69
2023-03-06T11:52:59.049Z,8.68
2023-03-06T11:56:22.898Z,8.62
2023-03-06T11:59:02.076Z,8.51
2023-03-06T12:01:39.599Z,8.42
2023-03-06T12:04:26.593Z,8.41
2023-03-06T12:07:08.011Z,8.44
2023-03-06T12:09:59.126Z,8.54
2023-03-06T12:12:37.785Z,8.66
2023-03-06T12:15:19.468Z,8.71
2023-03-06T12:17:58.793Z,8.72
2023-03-06T12:20:58.656Z,8.72
2023-03-06T12:24:01.881Z,8.76
2023-03-06T12:26:42.416Z,8.85
2023-03-06T12:29:22.220Z,8.96
2023-03-06T12:31:59.692Z,9.06
2023-03-06T12:34:37.187Z,9.13
2023-03-06T12:37:21.394Z,9.12
2023-03-06T12:40:26.251Z,9.11
2023-03-06T12:43:20.647Z,9.13
2023-03-06T12:45:51.510Z,9.11
2023-03-06T12:48:25.847Z,9.10
2023-03-06T12:50:54.105Z,9.05
2023-03-06T12:53:42.325Z,9.00
2023-03-06T12:56:16.038Z,8.96
2023-03-06T12:58:52.671Z,8.95
2023-03-06T13:01:39.846Z,8.94
2023-03-06T13:04:26.845Z,8.94
2023-03-06T13:07:16.318Z,9.11
2023-03-06T13:10:22.396Z,9.30
2023-03-06T13:13:00.725Z,9.36
2023-03-06T13:15:37.121Z,9.34
2023-03-06T13:18:23.357Z,9.30
2023-03-06T13:20:59.004Z,9.21
2023-03-06T13:23:30.306Z,9.17
2023-03-06T13:26:04.666Z,9.16
2023-03-06T13:28:50.301Z,9.14
2023-03-06T13:31:34.016Z,9.13
2023-03-06T13:34:26.063Z,9.16
2023-03-06T13:37:14.344Z,9.18
2023-03-06T13:40:11.366Z,9.23
2023-03-06T13:42:42.380Z,9.32
2023-03-06T13:45:19.380Z,9.36
2023-03-06T13:48:21.169Z,9.41
2023-03-06T13:50:47.179Z,9.44
2023-03-06T13:53:45.694Z,9.44
2023-03-06T13:56:51.370Z,9.42
2023-03-06T13:59:31.378Z,9.40
2023-03-06T14:02:21.297Z,9.41
2023-03-06T14:05:01.068Z,9.46
2023-03-06T14:07:37.175Z,9.51
2023-03-06T14:10:17.312Z,9.52
2023-03-06T14:12:51.654Z,9.51
2023-03-06T14:15:46.961Z,9.49
2023-03-06T14:18:24.712Z,9.46
2023-03-06T14:21:01.969Z,9.47
2023-03-06T14:23:35.922Z,9.50
2023-03-06T14:26:15.052Z,9.50
2023-03-06T14:28:55.319Z,9.46
2023-03-06T14:31:26.995Z,9.42
2023-03-06T14:33:59.763Z,9.40
2023-03-06T14:36:30.480Z,9.36
2023-03-06T14:38:59.624Z,9.34
2023-03-06T14:41:30.530Z,9.30
2023-03-06T14:44:21.493Z,9.22
2023-03-06T14:46:52.912Z,9.19
2023-03-06T14:49:23.022Z,9.17
2023-03-06T14:52:00.941Z,9.12
2023-03-06T14:54:32.122Z,9.04
2023-03-06T14:57:08.748Z,8.99
2023-03-06T14:59:47.880Z,8.95
2023-03-06T15:02:23.840Z,8.90
2023-03-06T15:04:56.794Z,8.86
2023-03-06T15:07:30.660Z,8.84
2023-03-06T15:10:00.309Z,8.82
2023-03-06T15:12:31.368Z,8.82
2023-03-06T15:15:03.631Z,8.80
2023-03-06T15:17:43.246Z,8.79
2023-03-06T15:20:38.035Z,8.77
2023-03-06T15:23:16.655Z,8.75
2023-03-06T15:25:54.090Z,8.72
2023-03-06T15:28:29.718Z,8.69
2023-03-06T15:31:20.082Z,8.66
2023-03-06T15:34:13.583Z,8.62
2023-03-06T15:36:44.370Z,8.59
2023-03-06T15:39:31.381Z,8.57
2023-03-06T15:42:13.175Z,8.56
2023-03-06T15:44:42.005Z,8.56
2023-03-06T15:47:11.911Z,8.54
2023-03-06T15:49:40.591Z,8.53
2023-03-06T15:52:09.507Z,8.52
2023-03-06T15:54:37.932Z,8.50
2023-03-06T15:57:12.556Z,8.47
2023-03-06T15:59:45.026Z,8.46
2023-03-06T16:02:21.700Z,8.43
2023-03-06T16:04:50.446Z,8.42
2023-03-06T16:07:18.601Z,8.46
2023-03-06T16:09:48.832Z,8.48
2023-03-06T16:12:20.477Z,8.46
2023-03-06T16:14:49.625Z,8.43
2023-03-06T16:17:17.716Z,8.41
2023-03-06T16:19:45.790Z,8.40
2023-03-06T16:22:14.538Z,8.39
2023-03-06T16:24:43.431Z,8.44
2023-03-06T16:27:23.766Z,8.45
2023-03-06T16:29:52.210Z,8.44
2023-03-06T16:32:20.291Z,8.43
2023-03-06T16:34:48.567Z,8.43
2023-03-06T16:37:16.710Z,8.42
2023-03-06T16:39:44.582Z,8.41
2023-03-06T16:42:12.894Z,8.40
2023-03-06T16:44:41.046Z,8.40
2023-03-06T16:47:12.295Z,8.39
2023-03-06T16:49:40.655Z,8.38
2023-03-06T16:52:11.184Z,8.36
2023-03-06T16:54:39.119Z,8.34
2023-03-06T16:57:07.316Z,8.32
2023-03-06T16:59:35.159Z,8.31
2023-03-06T17:02:03.224Z,8.30
2023-03-06T17:04:31.907Z,8.26
2023-03-06T17:06:59.865Z,8.24
2023-03-06T17:09:28.552Z,8.23
2023-03-06T17:11:57.181Z,8.18
2023-03-06T17:14:25.388Z,8.14
2023-03-06T17:16:54.118Z,8.11
2023-03-06T17:19:22.273Z,8.10
2023-03-06T17:21:50.538Z,8.09
2023-03-06T17:24:18.865Z,8.06
2023-03-06T17:26:48.472Z,8.03
2023-03-06T17:29:25.332Z,8.01
2023-03-06T17:31:56.578Z,7.97
2023-03-06T17:34:24.711Z,7.95
2023-03-06T17:36:52.813Z,7.93
2023-03-06T17:39:20.799Z,7.90
2023-03-06T17:41:50.057Z,7.86
2023-03-06T17:44:18.100Z,7.84
2023-03-06T17:46:46.116Z,7.82
2023-03-06T17:49:14.034Z,7.79
2023-03-06T17:51:42.478Z,7.77
2023-03-06T17:54:10.371Z,7.75
2023-03-06T17:56:38.768Z,7.73
2023-03-06T17:59:06.990Z,7.71
2023-03-06T18:01:35.477Z,7.69
2023-03-06T18:04:04.325Z,7.67
2023-03-06T18:06:33.680Z,7.67
2023-03-06T18:09:01.836Z,7.65
2023-03-06T18:11:30.621Z,7.63
2023-03-06T18:13:59.067Z,7.61
2023-03-06T18:16:27.082Z,7.60
2023-03-06T18:18:56.725Z,7.60
2023-03-06T18:21:24.918Z,7.60
2023-03-06T18:23:53.403Z,7.59
2023-03-06T18:26:29.616Z,7.60
2023-03-06T18:29:01.417Z,7.59
2023-03-06T18:31:35.681Z,7.60
2023-03-06T18:34:07.558Z,7.59
2023-03-06T18:36:36.160Z,7.60
2023-03-06T18:39:07.237Z,7.60
2023-03-06T18:41:36.289Z,7.60
2023-03-06T18:44:04.885Z,7.61
2023-03-06T18:46:35.612Z,7.61
2023-03-06T18:49:04.929Z,7.61
2023-03-06T18:51:33.599Z,7.62
2023-03-06T18:54:03.914Z,7.62
2023-03-06T18:56:32.335Z,7.62
2023-03-06T18:59:07.286Z,7.62
2023-03-06T19:01:36.750Z,7.61
2023-03-06T19:04:05.521Z,7.62
2023-03-06T19:06:33.836Z,7.62
2023-03-06T19:09:02.277Z,7.62
2023-03-06T19:11:31.960Z,7.60
2023-03-06T19:14:00.465Z,7.58
2023-03-06T19:16:30.431Z,7.57
2023-03-06T19:18:59.298Z,7.55
2023-03-06T19:21:28.588Z,7.54
2023-03-06T19:23:57.481Z,7.55
2023-03-06T19:26:26.833Z,7.53
2023-03-06T19:28:54.647Z,7.50
2023-03-06T19:31:25.994Z,7.48
2023-03-06T19:33:56.623Z,7.45
2023-03-06T19:36:27.917Z,7.42
2023-03-06T19:38:58.627Z,7.39
2023-03-06T19:41:28.128Z,7.36
2023-03-06T19:43:58.891Z,7.35
2023-03-06T19:46:27.425Z,7.36
2023-03-06T19:48:57.859Z,7.38
2023-03-06T19:51:26.926Z,7.39
2023-03-06T19:53:56.130Z,7.39
2023-03-06T19:56:29.273Z,7.37
2023-03-06T19:58:57.793Z,7.36
2023-03-06T20:01:28.002Z,7.34
2023-03-06T20:04:00.431Z,7.31
2023-03-06T20:06:33.722Z,7.26
2023-03-06T20:09:04.273Z,7.21
2023-03-06T20:11:32.571Z,7.15
2023-03-06T20:14:02.645Z,7.07
2023-03-06T20:16:31.815Z,7.02
2023-03-06T20:19:01.289Z,6.96
2023-03-06T20:21:32.826Z,6.90
2023-03-06T20:24:01.281Z,6.86
2023-03-06T20:26:30.621Z,6.83
2023-03-06T20:28:59.239Z,6.80
2023-03-06T20:31:30.921Z,6.77
2023-03-06T20:33:59.806Z,6.71
2023-03-06T20:36:30.934Z,6.64
2023-03-06T20:39:00.198Z,6.59
2023-03-06T20:41:30.363Z,6.52
2023-03-06T20:43:59.875Z,6.44
2023-03-06T20:46:28.311Z,6.40
2023-03-06T20:48:58.151Z,6.37
2023-03-06T20:51:32.380Z,6.35
2023-03-06T20:54:02.509Z,6.31
2023-03-06T20:56:33.299Z,6.25
2023-03-06T20:59:02.194Z,6.23
2023-03-06T21:01:33.784Z,6.20
2023-03-06T21:04:04.701Z,6.19
2023-03-06T21:06:33.203Z,6.19
2023-03-06T21:09:01.805Z,6.18
2023-03-06T21:11:30.357Z,6.17
2023-03-06T21:13:58.411Z,6.16
2023-03-06T21:16:27.985Z,6.16
2023-03-06T21:18:57.907Z,6.15
2023-03-06T21:21:31.726Z,6.14
2023-03-06T21:24:00.186Z,6.16
2023-03-06T21:26:30.800Z,6.16
2023-03-06T21:28:59.052Z,6.16
2023-03-06T21:31:28.526Z,6.16
2023-03-06T21:33:58.694Z,6.17
2023-03-06T21:36:28.151Z,6.18
2023-03-06T21:38:55.980Z,6.19
2023-03-06T21:41:27.248Z,6.20
2023-03-06T21:43:57.087Z,6.23
2023-03-06T21:46:26.608Z,6.25
2023-03-06T21:48:55.935Z,6.27
2023-03-06T21:51:25.988Z,6.29
2023-03-06T21:53:54.700Z,6.31
2023-03-06T21:56:25.458Z,6.34
2023-03-06T21:58:54.410Z,6.39
2023-03-06T22:01:26.331Z,6.42
2023-03-06T22:03:55.184Z,6.46
2023-03-06T22:06:25.981Z,6.50
2023-03-06T22:08:57.803Z,6.54
2023-03-06T22:11:29.979Z,6.58
2023-03-06T22:13:58.169Z,6.59
2023-03-06T22:16:26.679Z,6.61
2023-03-06T22:18:54.791Z,6.62
2023-03-06T22:21:23.464Z,6.63
2023-03-06T22:23:59.696Z,6.65
2023-03-06T22:26:28.942Z,6.66
2023-03-06T22:28:57.718Z,6.66
2023-03-06T22:31:28.519Z,6.64
2023-03-06T22:33:58.103Z,6.64
2023-03-06T22:36:27.243Z,6.65
2023-03-06T22:38:59.262Z,6.67
2023-03-06T22:41:27.716Z,6.68
2023-03-06T22:43:57.255Z,6.71
2023-03-06T22:46:26.169Z,6.75
2023-03-06T22:48:56.712Z,6.77
2023-03-06T22:51:26.008Z,6.78
2023-03-06T22:53:54.121Z,6.79
2023-03-06T22:56:22.711Z,6.79
2023-03-06T22:58:51.261Z,6.81
2023-03-06T23:01:25.224Z,6.81
2023-03-06T23:03:55.772Z,6.81
2023-03-06T23:06:26.422Z,6.80
2023-03-06T23:09:14.973Z,6.81
2023-03-06T23:12:01.776Z,6.83
2023-03-06T23:14:51.074Z,6.82
2023-03-06T23:17:37.696Z,6.83
2023-03-06T23:20:24.257Z,6.87
2023-03-06T23:23:11.677Z,6.90
2023-03-06T23:25:43.605Z,6.87
2023-03-06T23:28:12.340Z,6.81
2023-03-06T23:30:42.013Z,6.74
2023-03-06T23:33:10.560Z,6.68
2023-03-06T23:35:41.757Z,6.64
2023-03-06T23:38:09.760Z,6.61
2023-03-06T23:40:39.030Z,6.56
2023-03-06T23:43:07.353Z,6.50
2023-03-06T23:45:35.550Z,6.45
2023-03-06T23:48:07.003Z,6.44
2023-03-06T23:50:35.173Z,6.42
2023-03-06T23:53:03.529Z,6.40
2023-03-06T23:55:31.694Z,6.35
2023-03-06T23:57:59.820Z,6.33
